Time;durP1;ratioP1;P1;durP2;ratioP2;P2;SDS_P1;SDS_P2;PMS_P1;PMS_P2;Temp;Humidity;BMP_temperature;BMP_pressure;BME280_temperature;BME280_humidity;BME280_pressure;Samples;Min_cycle;Max_cycle;Signal;HPM_P1;HPM_P2
2022/05/25 06:43:44;;;;;;;7.53;4.33;;;15.40;99.90;;;;;;5090170;27;20926;-70
2022/05/25 06:46:12;;;;;;;5.68;2.88;;;15.60;99.90;;;;;;5085852;28;20508;-71
2022/05/25 06:48:38;;;;;;;4.63;3.10;;;15.80;99.90;;;;;;5089018;28;20174;-71
2022/05/25 06:51:14;;;;;;;4.30;2.40;;;16.10;99.90;;;;;;5089034;28;20431;-71
2022/05/25 06:53:40;;;;;;;3.33;1.90;;;16.30;99.90;;;;;;5087581;28;20424;-71
2022/05/25 06:56:06;;;;;;;3.83;2.10;;;16.50;99.90;;;;;;5088678;28;20476;-72
2022/05/25 06:58:33;;;;;;;6.13;2.60;;;16.60;99.90;;;;;;5088866;28;20431;-71
2022/05/25 07:00:58;;;;;;;2.33;1.90;;;16.70;99.90;;;;;;5089133;28;20431;-71
2022/05/25 07:03:24;;;;;;;4.87;1.73;;;16.80;99.90;;;;;;5088581;28;20475;-71
2022/05/25 07:05:49;;;;;;;3.10;1.80;;;16.90;99.90;;;;;;5088653;28;20169;-71
2022/05/25 07:08:15;;;;;;;3.70;2.23;;;17.00;99.90;;;;;;5088618;28;20427;-71
2022/05/25 07:10:46;;;;;;;3.90;1.70;;;17.10;99.90;;;;;;5088522;28;20195;-71
2022/05/25 07:13:15;;;;;;;2.20;1.80;;;17.10;99.90;;;;;;5086182;28;20253;-71
2022/05/25 07:15:42;;;;;;;5.53;2.03;;;17.20;99.90;;;;;;5088278;28;20922;-70
2022/05/25 07:18:08;;;;;;;2.87;1.83;;;17.20;99.90;;;;;;5088841;28;20429;-71
2022/05/25 07:20:33;;;;;;;4.17;1.80;;;17.20;99.90;;;;;;5088403;28;20879;-70
2022/05/25 07:22:59;;;;;;;3.47;1.97;;;17.20;99.90;;;;;;5088377;28;20463;-71
2022/05/25 07:25:25;;;;;;;3.63;1.70;;;17.20;99.90;;;;;;5088464;28;20188;-71
2022/05/25 07:27:51;;;;;;;2.00;1.43;;;17.30;99.90;;;;;;5085376;28;20424;-71
2022/05/25 07:30:16;;;;;;;2.70;1.30;;;17.40;99.90;;;;;;5088176;28;20929;-72
2022/05/25 07:32:43;;;;;;;3.77;1.70;;;17.50;99.90;;;;;;5088344;28;20178;-72
2022/05/25 07:35:12;;;;;;;5.53;1.80;;;17.50;99.90;;;;;;5088174;28;20505;-71
2022/05/25 07:37:40;;;;;;;4.70;1.87;;;17.70;99.90;;;;;;5087902;28;20766;-71
2022/05/25 07:40:12;;;;;;;1.30;1.10;;;17.70;99.90;;;;;;5088196;28;20714;-71
2022/05/25 07:42:42;;;;;;;1.93;1.00;;;17.80;99.90;;;;;;5087490;28;20484;-71
2022/05/25 07:45:08;;;;;;;1.60;1.20;;;17.80;99.90;;;;;;5087945;28;20423;-71
2022/05/25 07:47:34;;;;;;;1.43;1.30;;;17.70;99.90;;;;;;5087689;28;20436;-70
2022/05/25 07:50:00;;;;;;;2.70;1.17;;;17.70;99.90;;;;;;5087806;28;20490;-69
2022/05/25 07:52:29;;;;;;;2.10;1.20;;;17.70;99.90;;;;;;5088187;28;20460;-70
2022/05/25 07:54:56;;;;;;;2.03;1.40;;;17.70;99.90;;;;;;5075795;28;20667;-70
2022/05/25 07:57:22;;;;;;;1.60;1.43;;;17.70;99.90;;;;;;5074863;28;20475;-70
2022/05/25 07:59:47;;;;;;;2.70;1.53;;;17.70;99.90;;;;;;5074763;28;20451;-70
2022/05/25 08:08:04;;;;;;;2.30;1.27;;;17.70;99.90;;;;;;5071127;28;20853;-70
2022/05/25 08:10:30;;;;;;;2.00;1.17;;;17.70;99.90;;;;;;5073868;28;20425;-71
2022/05/25 08:12:58;;;;;;;3.57;1.47;;;17.70;99.90;;;;;;5074045;28;20483;-70
2022/05/25 08:15:25;;;;;;;2.20;1.30;;;17.70;99.90;;;;;;5073807;28;20799;-71
2022/05/25 08:17:51;;;;;;;2.10;1.47;;;17.70;99.90;;;;;;5073206;28;20437;-70
2022/05/25 08:20:18;;;;;;;3.60;1.50;;;17.70;99.90;;;;;;5073955;28;20455;-71
2022/05/25 08:22:44;;;;;;;1.80;1.40;;;17.70;99.90;;;;;;5073817;28;20533;-70
2022/05/25 08:25:12;;;;;;;2.43;1.10;;;17.70;99.90;;;;;;5073984;28;20429;-70
2022/05/25 08:27:39;;;;;;;2.47;1.47;;;17.80;99.90;;;;;;5073408;28;20437;-70
2022/05/25 08:30:10;;;;;;;2.63;1.00;;;17.80;99.90;;;;;;5073840;28;20428;-70
2022/05/25 08:32:35;;;;;;;1.60;1.50;;;17.80;99.90;;;;;;5073330;28;20445;-70
2022/05/25 08:35:02;;;;;;;1.60;1.33;;;17.90;99.90;;;;;;5073742;28;20478;-70
2022/05/25 08:37:27;;;;;;;2.80;1.50;;;17.90;99.90;;;;;;5073688;28;20171;-70
2022/05/25 08:39:53;;;;;;;1.10;0.87;;;18.00;99.90;;;;;;5073416;28;20443;-70
2022/05/25 08:42:22;;;;;;;5.00;1.30;;;18.00;99.90;;;;;;5073329;28;20226;-70
2022/05/25 08:44:50;;;;;;;3.27;1.67;;;18.10;99.90;;;;;;5073593;28;20638;-70
2022/05/25 08:47:16;;;;;;;1.83;1.43;;;18.00;99.90;;;;;;5073366;28;20437;-70
2022/05/25 08:49:49;;;;;;;2.07;1.27;;;18.00;99.90;;;;;;5073400;28;20477;-70
2022/05/25 08:52:32;;;;;;;2.40;1.27;;;18.10;99.90;;;;;;5072971;28;20515;-70
2022/05/25 08:55:09;;;;;;;2.40;1.53;;;18.10;99.90;;;;;;5072467;28;20439;-70
2022/05/25 08:57:48;;;;;;;3.10;1.50;;;18.10;99.90;;;;;;5072039;28;20428;-70
2022/05/25 09:00:17;;;;;;;4.70;1.70;;;18.20;99.90;;;;;;5071711;28;20437;-70
2022/05/25 09:03:21;;;;;;;2.10;1.37;;;18.30;99.90;;;;;;5071916;28;20476;-70
2022/05/25 09:05:54;;;;;;;4.53;1.73;;;18.30;99.90;;;;;;5070141;28;20942;-70
2022/05/25 09:08:34;;;;;;;7.57;1.77;;;18.40;99.90;;;;;;5072751;28;20772;-70
2022/05/25 09:11:45;;;;;;;2.30;1.50;;;18.50;99.90;;;;;;5072683;28;20575;-70
2022/05/25 09:14:37;;;;;;;2.67;2.00;;;18.60;99.90;;;;;;5065658;28;20781;-70
2022/05/25 09:17:11;;;;;;;3.03;1.40;;;18.70;99.90;;;;;;5070648;28;20423;-70
2022/05/25 09:19:40;;;;;;;1.63;1.10;;;18.70;99.90;;;;;;5071124;28;20887;-70
2022/05/25 09:22:09;;;;;;;2.67;1.70;;;18.40;99.90;;;;;;5071648;28;20471;-70
2022/05/25 09:24:35;;;;;;;2.17;1.23;;;18.70;99.90;;;;;;5070273;28;20512;-70
2022/05/25 09:27:04;;;;;;;4.50;1.33;;;18.70;99.90;;;;;;5068624;28;20514;-70
2022/05/25 09:29:30;;;;;;;2.70;1.10;;;18.70;98.70;;;;;;5071171;28;20435;-70
2022/05/25 09:32:19;;;;;;;2.53;1.40;;;18.80;99.80;;;;;;5071960;28;20475;-70
2022/05/25 09:34:55;;;;;;;2.57;1.50;;;18.80;99.90;;;;;;5071751;28;20427;-70
2022/05/25 09:37:35;;;;;;;1.90;1.23;;;18.90;98.90;;;;;;5071946;28;20952;-70
2022/05/25 09:40:04;;;;;;;1.60;1.20;;;18.90;99.20;;;;;;5072171;28;20926;-70
2022/05/25 09:42:34;;;;;;;1.93;1.10;;;19.00;97.40;;;;;;5071877;28;20464;-71
2022/05/25 09:45:00;;;;;;;5.33;1.63;;;18.70;97.40;;;;;;5072160;28;20955;-70
2022/05/25 09:47:45;;;;;;;1.70;0.90;;;18.70;97.40;;;;;;5072052;28;20486;-70
2022/05/25 09:50:35;;;;;;;1.70;1.03;;;18.70;97.30;;;;;;5069961;28;20167;-71
2022/05/25 09:53:09;;;;;;;1.27;1.10;;;18.80;99.30;;;;;;5067832;28;20834;-70
2022/05/25 09:55:42;;;;;;;1.93;0.80;;;18.80;98.30;;;;;;5068722;28;20432;-70
2022/05/25 09:58:22;;;;;;;1.73;1.17;;;18.80;98.20;;;;;;5069951;28;20421;-70
2022/05/25 10:00:56;;;;;;;2.60;1.13;;;18.80;98.40;;;;;;5071190;28;20424;-70
2022/05/25 10:03:36;;;;;;;2.47;1.27;;;18.90;97.90;;;;;;5071447;28;20479;-70
2022/05/25 10:06:35;;;;;;;1.60;1.00;;;18.90;95.90;;;;;;5071721;28;20934;-71
2022/05/25 10:09:16;;;;;;;3.03;1.20;;;19.00;96.40;;;;;;5071351;28;20437;-71
2022/05/25 10:11:48;;;;;;;1.20;0.80;;;19.00;96.10;;;;;;5070674;28;20436;-71
2022/05/25 10:14:37;;;;;;;5.23;1.87;;;18.90;95.40;;;;;;5070218;28;20797;-71
2022/05/25 10:17:28;;;;;;;1.47;0.90;;;19.00;97.50;;;;;;5070438;28;20460;-70
2022/05/25 10:19:56;;;;;;;2.57;1.57;;;19.10;99.40;;;;;;5070377;28;20425;-70
2022/05/25 10:22:44;;;;;;;4.50;1.13;;;19.20;96.40;;;;;;5071560;28;20468;-71
2022/05/25 10:25:35;;;;;;;2.90;1.67;;;19.30;94.80;;;;;;5071484;28;20433;-70
2022/05/25 10:28:03;;;;;;;3.10;1.10;;;19.40;94.50;;;;;;5071042;28;20780;-71
2022/05/25 10:36:48;;;;;;;1.73;0.93;;;19.70;92.30;;;;;;5071242;28;20489;-71
2022/05/25 10:39:18;;;;;;;2.33;1.13;;;19.80;90.30;;;;;;5071069;28;20460;-71
2022/05/25 10:41:45;;;;;;;1.60;1.00;;;19.70;92.50;;;;;;5071314;28;21033;-71
2022/05/25 10:44:18;;;;;;;1.10;0.80;;;19.70;90.70;;;;;;5071635;28;20429;-71
2022/05/25 10:46:54;;;;;;;1.67;0.90;;;19.80;91.90;;;;;;5069569;28;20516;-71
2022/05/25 10:49:30;;;;;;;4.23;1.20;;;20.00;90.10;;;;;;5069040;28;20720;-72
2022/05/25 10:52:04;;;;;;;2.60;1.20;;;20.00;89.30;;;;;;5071349;28;20530;-71
2022/05/25 10:54:45;;;;;;;2.10;1.20;;;20.00;90.10;;;;;;5071374;28;20417;-71
2022/05/25 10:57:31;;;;;;;1.10;0.87;;;20.00;91.20;;;;;;5070684;28;20470;-70
2022/05/25 11:00:09;;;;;;;1.87;0.90;;;20.00;91.50;;;;;;5069459;28;20429;-71
2022/05/25 11:02:37;;;;;;;1.00;0.77;;;19.90;92.10;;;;;;5071182;28;20468;-70
2022/05/25 11:05:34;;;;;;;2.17;0.80;;;19.80;91.20;;;;;;5068471;28;20452;-70
2022/05/25 11:08:37;;;;;;;1.00;0.80;;;19.80;89.50;;;;;;5070515;28;20485;-70
2022/05/25 11:11:42;;;;;;;3.03;1.17;;;19.80;87.30;;;;;;5051242;28;20430;-69
2022/05/25 11:14:32;;;;;;;4.70;1.07;;;19.90;90.40;;;;;;5070596;28;20516;-70
2022/05/25 11:17:12;;;;;;;3.57;0.93;;;20.20;87.00;;;;;;5068952;28;20516;-70
2022/05/25 11:20:09;;;;;;;2.17;0.70;;;20.30;84.70;;;;;;5071292;28;20421;-71
2022/05/25 11:22:58;;;;;;;1.07;0.97;;;20.30;82.00;;;;;;5070123;28;20479;-71
2022/05/25 11:25:32;;;;;;;2.30;1.03;;;20.30;86.20;;;;;;5070244;28;20934;-70
2022/05/25 11:28:16;;;;;;;4.13;1.50;;;20.30;83.50;;;;;;5069174;28;20443;-71
2022/05/25 11:30:54;;;;;;;1.00;0.80;;;20.30;83.00;;;;;;5074852;28;20424;-70
2022/05/25 11:33:58;;;;;;;1.20;1.00;;;20.50;86.40;;;;;;5072314;28;20466;-71
2022/05/25 11:36:46;;;;;;;2.40;1.13;;;20.50;83.10;;;;;;5071826;28;20951;-71
2022/05/25 11:39:42;;;;;;;3.70;0.87;;;20.50;82.80;;;;;;5072502;28;20471;-71
2022/05/25 11:42:39;;;;;;;1.13;0.80;;;20.60;84.30;;;;;;5073227;28;20477;-71
2022/05/25 11:45:28;;;;;;;1.97;0.90;;;20.70;78.50;;;;;;5073525;28;20428;-70
2022/05/25 11:48:06;;;;;;;1.20;0.80;;;20.70;77.90;;;;;;5074459;28;20520;-71
2022/05/25 11:50:44;;;;;;;1.73;0.70;;;20.80;72.30;;;;;;5072437;28;20542;-71
2022/05/25 11:53:12;;;;;;;5.20;0.80;;;20.90;72.50;;;;;;5072119;28;20832;-71
2022/05/25 11:55:47;;;;;;;1.13;0.93;;;21.00;71.80;;;;;;5074085;28;20456;-71
2022/05/25 11:58:14;;;;;;;1.43;0.90;;;21.00;72.20;;;;;;5073394;28;20454;-71
2022/05/25 12:00:57;;;;;;;2.03;1.10;;;20.90;74.00;;;;;;5073977;28;20412;-71
2022/05/25 12:03:43;;;;;;;5.37;1.03;;;20.90;73.80;;;;;;5074101;28;20468;-74
2022/05/25 12:06:45;;;;;;;2.47;1.03;;;21.00;76.60;;;;;;5071364;28;20425;-74
2022/05/25 12:09:20;;;;;;;1.27;0.90;;;21.20;76.10;;;;;;5073741;28;20897;-74
2022/05/25 12:11:51;;;;;;;1.50;0.80;;;21.40;79.10;;;;;;5073690;28;20459;-74
2022/05/25 12:14:25;;;;;;;1.07;0.83;;;21.50;73.10;;;;;;5073830;28;20578;-74
2022/05/25 12:16:56;;;;;;;3.17;1.57;;;21.30;73.80;;;;;;5073731;28;20428;-74
2022/05/25 12:19:27;;;;;;;1.67;0.80;;;21.40;74.80;;;;;;5071539;28;20429;-75
2022/05/25 12:22:15;;;;;;;1.40;0.90;;;21.50;76.60;;;;;;5072568;28;20461;-77
2022/05/25 12:24:51;;;;;;;1.40;1.00;;;21.60;75.50;;;;;;5071614;28;20445;-76
2022/05/25 12:27:21;;;;;;;1.47;1.03;;;21.60;78.90;;;;;;5071518;28;20432;-76
2022/05/25 12:29:50;;;;;;;2.70;0.80;;;21.70;72.90;;;;;;5072615;28;20890;-76
2022/05/25 12:32:18;;;;;;;2.53;0.73;;;21.70;68.90;;;;;;5072741;28;20428;-74
2022/05/25 12:34:46;;;;;;;1.40;0.73;;;21.40;67.70;;;;;;5072367;28;20518;-74
2022/05/25 12:37:15;;;;;;;2.33;0.82;;;21.20;70.90;;;;;;5073056;28;20437;-83
2022/05/25 12:39:46;;;;;;;4.50;1.10;;;21.30;70.90;;;;;;5073959;28;20171;-77
2022/05/25 12:42:23;;;;;;;1.77;0.80;;;21.50;73.70;;;;;;5073441;28;20937;-81
2022/05/25 12:48:36;;;;;;;3.43;1.00;;;21.80;68.20;;;;;;5053428;28;20487;-78
2022/05/25 12:51:10;;;;;;;3.10;1.00;;;21.90;66.50;;;;;;5054592;28;20420;-77
2022/05/25 12:53:39;;;;;;;1.73;0.90;;;21.80;66.80;;;;;;5054509;28;20425;-75
2022/05/25 12:56:19;;;;;;;1.00;0.80;;;21.60;66.30;;;;;;5056699;28;20421;-75
2022/05/25 12:58:47;;;;;;;1.33;1.00;;;21.40;64.70;;;;;;5073453;28;20424;-75
2022/05/25 13:01:28;;;;;;;1.60;1.10;;;21.50;69.50;;;;;;5074276;28;20809;-76
2022/05/25 13:03:57;;;;;;;1.73;0.80;;;21.50;68.20;;;;;;5074392;28;20440;-76
2022/05/25 13:06:42;;;;;;;1.27;0.83;;;21.60;67.80;;;;;;5074204;28;20923;-76
2022/05/25 13:09:40;;;;;;;3.00;0.90;;;21.70;66.60;;;;;;5073704;28;20759;-78
2022/05/25 13:12:40;;;;;;;1.20;1.10;;;21.70;65.30;;;;;;5073118;28;20428;-75
2022/05/25 13:15:17;;;;;;;1.33;0.70;;;21.40;65.50;;;;;;5072238;28;20436;-74
2022/05/25 13:17:53;;;;;;;2.80;0.90;;;21.40;69.00;;;;;;5073572;28;20505;-75
2022/05/25 13:20:48;;;;;;;1.40;0.90;;;21.30;66.10;;;;;;5072563;28;20436;-74
2022/05/25 13:24:05;;;;;;;2.57;1.10;;;21.30;67.30;;;;;;5070499;28;20476;-76
2022/05/25 13:26:49;;;;;;;2.20;0.80;;;21.40;66.80;;;;;;5065384;28;20429;-77
2022/05/25 13:29:32;;;;;;;6.00;0.97;;;21.60;65.40;;;;;;5070661;28;20825;-76
2022/05/25 13:32:05;;;;;;;1.43;0.80;;;21.70;70.00;;;;;;5070154;28;20861;-76
2022/05/25 13:34:32;;;;;;;2.53;1.00;;;21.80;63.70;;;;;;5070793;28;20517;-73
2022/05/25 13:37:04;;;;;;;3.53;0.70;;;21.80;67.00;;;;;;5073218;28;20831;-75
2022/05/25 13:39:31;;;;;;;1.70;1.00;;;21.70;64.80;;;;;;5069828;28;20451;-75
2022/05/25 13:42:04;;;;;;;2.50;1.10;;;21.60;64.00;;;;;;5072845;28;20472;-73
2022/05/25 13:44:40;;;;;;;9.03;1.30;;;21.50;65.60;;;;;;5070725;28;20464;-74
2022/05/25 13:47:06;;;;;;;1.10;0.80;;;21.40;67.60;;;;;;5073190;28;20539;-74
2022/05/25 13:49:35;;;;;;;1.63;1.07;;;21.30;69.20;;;;;;5073039;28;20850;-74
2022/05/25 13:52:28;;;;;;;2.17;0.90;;;21.40;65.80;;;;;;5072670;28;20440;-74
2022/05/25 13:54:57;;;;;;;1.63;1.00;;;21.30;66.80;;;;;;5071059;28;20524;-72
2022/05/25 13:57:51;;;;;;;1.60;0.90;;;21.20;62.40;;;;;;5073021;28;20459;-72
2022/05/25 14:00:25;;;;;;;4.33;1.03;;;21.10;63.40;;;;;;5069463;28;20538;-71
2022/05/25 14:03:01;;;;;;;1.10;1.00;;;21.00;63.50;;;;;;5070616;28;20826;-71
2022/05/25 14:05:30;;;;;;;4.90;1.00;;;21.10;63.60;;;;;;5072732;28;20923;-72
2022/05/25 14:10:54;;;;;;;2.70;1.00;;;21.30;65.80;;;;;;5072922;28;20412;-72
2022/05/25 14:11:35;;;;;;;2.40;0.90;;;21.20;64.40;;;;;;5067122;28;20846;-71
2022/05/25 14:14:02;;;;;;;2.23;0.90;;;21.40;61.90;;;;;;5071044;28;20436;-71
2022/05/25 14:16:30;;;;;;;1.77;0.80;;;21.20;64.70;;;;;;5072636;28;20490;-71
2022/05/25 14:18:59;;;;;;;1.90;0.90;;;21.10;63.30;;;;;;5072752;28;20432;-72
2022/05/25 14:21:29;;;;;;;2.40;0.90;;;21.00;62.10;;;;;;5072632;28;20768;-72
2022/05/25 14:23:56;;;;;;;3.03;1.23;;;20.90;60.30;;;;;;5072640;28;20737;-72
2022/05/25 14:26:27;;;;;;;1.00;0.80;;;20.80;60.90;;;;;;5072564;28;20425;-73
2022/05/25 14:28:55;;;;;;;1.00;0.73;;;20.70;59.50;;;;;;5070569;28;20425;-71
2022/05/25 14:31:22;;;;;;;4.83;0.87;;;20.80;59.60;;;;;;5072085;28;20432;-71
2022/05/25 14:34:08;;;;;;;1.17;0.80;;;20.90;62.40;;;;;;5072543;28;20459;-71
2022/05/25 14:36:34;;;;;;;2.13;0.90;;;21.20;60.10;;;;;;5069531;28;20479;-73
2022/05/25 14:39:01;;;;;;;3.37;0.90;;;21.40;60.00;;;;;;5071164;28;20432;-71
2022/05/25 14:41:48;;;;;;;1.10;0.83;;;21.40;59.30;;;;;;5071021;28;20464;-71
2022/05/25 14:44:51;;;;;;;1.97;1.00;;;21.40;60.40;;;;;;5070532;28;20939;-71
2022/05/25 14:47:19;;;;;;;2.53;0.83;;;21.40;61.10;;;;;;5070575;28;20504;-71
2022/05/25 14:50:15;;;;;;;1.70;0.77;;;21.40;60.50;;;;;;5072213;28;20428;-71
2022/05/25 14:53:06;;;;;;;2.30;1.20;;;21.50;58.30;;;;;;5072724;28;20424;-72
2022/05/25 14:55:47;;;;;;;2.17;0.90;;;21.40;62.40;;;;;;5072745;28;20420;-72
2022/05/25 14:58:20;;;;;;;1.10;0.73;;;21.30;59.10;;;;;;5072902;28;20574;-72
2022/05/25 15:01:07;;;;;;;2.17;1.20;;;21.10;61.10;;;;;;5072547;28;20424;-71
2022/05/25 15:03:37;;;;;;;1.83;0.83;;;21.10;60.40;;;;;;5073205;28;20877;-72
2022/05/25 15:06:19;;;;;;;1.50;1.00;;;21.10;59.40;;;;;;5076740;28;20420;-72
2022/05/25 15:08:50;;;;;;;2.10;0.90;;;21.00;61.30;;;;;;5076635;28;20428;-71
2022/05/25 15:11:40;;;;;;;2.03;1.00;;;21.00;60.30;;;;;;5076558;28;20412;-71
2022/05/25 15:19:51;;;;;;;1.97;1.00;;;21.20;61.60;;;;;;5076161;28;20463;-72
2022/05/25 15:22:24;;;;;;;1.00;0.80;;;21.20;61.20;;;;;;5073307;28;21043;-71
2022/05/25 15:25:00;;;;;;;2.27;1.43;;;21.00;60.10;;;;;;5079748;28;20500;-72
2022/05/25 15:27:36;;;;;;;1.50;1.10;;;21.10;61.10;;;;;;5077734;28;20801;-72
2022/05/25 15:30:03;;;;;;;4.50;1.50;;;21.20;60.00;;;;;;5074146;28;20799;-72
2022/05/25 15:32:29;;;;;;;3.30;1.13;;;21.10;60.10;;;;;;5077192;28;20446;-71
2022/05/25 15:34:54;;;;;;;3.00;1.13;;;21.00;61.80;;;;;;5094840;28;20423;-71
2022/05/25 15:37:24;;;;;;;3.10;1.10;;;21.00;61.50;;;;;;5076225;28;20183;-74
2022/05/25 15:39:51;;;;;;;1.37;1.13;;;20.90;63.70;;;;;;5076159;28;20174;-72
2022/05/25 15:42:16;;;;;;;20.57;1.77;;;20.80;65.00;;;;;;5075524;28;20515;-72
2022/05/25 15:44:42;;;;;;;3.00;1.00;;;20.80;62.10;;;;;;5079835;28;20466;-71
2022/05/25 15:47:18;;;;;;;1.60;0.83;;;20.90;61.70;;;;;;5096198;28;20178;-74
2022/05/25 15:49:44;;;;;;;1.93;0.90;;;20.90;60.10;;;;;;5096016;28;20620;-71
2022/05/25 15:52:11;;;;;;;1.43;1.10;;;20.70;62.00;;;;;;5096323;28;20426;-71
2022/05/25 15:54:37;;;;;;;5.07;1.30;;;20.60;62.90;;;;;;5096016;28;20424;-70
2022/05/25 15:57:03;;;;;;;1.73;0.90;;;20.60;59.90;;;;;;5096077;28;20424;-71
2022/05/25 15:59:29;;;;;;;4.70;0.97;;;20.60;59.40;;;;;;5095810;28;20428;-71
2022/05/25 16:01:59;;;;;;;3.60;1.33;;;20.60;59.20;;;;;;5095954;28;20474;-71
2022/05/25 16:04:29;;;;;;;1.27;1.17;;;20.50;62.20;;;;;;5095816;28;20436;-71
2022/05/25 16:06:57;;;;;;;1.73;0.83;;;20.50;58.90;;;;;;5095974;28;20432;-71
2022/05/25 16:09:22;;;;;;;2.20;1.20;;;20.50;58.90;;;;;;5095709;28;20469;-72
2022/05/25 16:11:57;;;;;;;2.90;1.20;;;20.60;59.70;;;;;;5095453;28;20840;-71
2022/05/25 16:14:24;;;;;;;4.83;0.97;;;20.50;60.80;;;;;;5095405;28;20192;-71
2022/05/25 16:16:50;;;;;;;3.37;1.20;;;20.50;60.90;;;;;;5095515;28;20430;-71
2022/05/25 16:19:20;;;;;;;2.37;1.33;;;20.40;62.40;;;;;;5095317;28;20447;-71
2022/05/25 16:21:46;;;;;;;2.03;0.90;;;20.40;62.50;;;;;;5094920;28;20420;-71
2022/05/25 16:24:14;;;;;;;2.90;1.20;;;20.40;64.10;;;;;;5095369;28;20457;-71
2022/05/25 16:26:41;;;;;;;1.83;1.37;;;20.40;63.30;;;;;;5095470;28;20446;-71
2022/05/25 16:29:07;;;;;;;2.07;1.17;;;20.40;62.20;;;;;;5095183;28;20440;-74
2022/05/25 16:31:34;;;;;;;3.03;1.10;;;20.40;62.60;;;;;;5094224;28;20427;-71
2022/05/25 16:34:07;;;;;;;1.43;0.90;;;20.50;61.50;;;;;;5094524;28;20428;-71
2022/05/25 16:36:34;;;;;;;5.10;1.20;;;20.40;62.80;;;;;;5093818;28;20428;-70
2022/05/25 16:39:00;;;;;;;6.33;1.57;;;20.30;63.00;;;;;;5094261;28;20438;-83
2022/05/25 16:41:31;;;;;;;3.83;1.00;;;20.20;64.90;;;;;;5094009;28;20423;-72
2022/05/25 16:43:58;;;;;;;1.80;1.07;;;20.20;65.50;;;;;;5094152;28;20471;-73
2022/05/25 16:46:25;;;;;;;8.57;1.13;;;20.20;66.00;;;;;;5093769;28;20530;-70
2022/05/25 16:48:51;;;;;;;1.30;1.00;;;20.20;64.40;;;;;;5087813;28;20928;-75
2022/05/25 16:51:18;;;;;;;4.60;1.10;;;20.30;62.70;;;;;;5076057;28;20425;-79
2022/05/25 16:53:45;;;;;;;1.60;0.93;;;20.10;64.20;;;;;;5075300;28;20862;-79
2022/05/25 16:56:12;;;;;;;2.70;1.47;;;20.20;63.30;;;;;;5074632;28;20431;-80
2022/05/25 16:58:38;;;;;;;4.00;1.50;;;20.10;65.10;;;;;;5072954;28;20867;-74
2022/05/25 17:01:08;;;;;;;1.53;0.80;;;20.00;65.30;;;;;;5073630;28;20545;-78
2022/05/25 17:03:33;;;;;;;1.00;0.73;;;20.00;64.70;;;;;;5073345;28;20529;-78
2022/05/25 17:05:59;;;;;;;2.40;0.97;;;19.90;65.00;;;;;;5073879;28;20421;-75
2022/05/25 17:08:29;;;;;;;4.50;1.03;;;19.90;64.70;;;;;;5073447;28;20545;-75
2022/05/25 17:10:57;;;;;;;2.93;1.20;;;19.80;65.70;;;;;;5073470;28;20183;-76
2022/05/25 17:13:24;;;;;;;3.97;1.90;;;19.80;65.80;;;;;;5073312;28;20752;-75
2022/05/25 17:15:49;;;;;;;2.87;1.27;;;19.70;66.00;;;;;;5072087;28;20445;-78
2022/05/25 17:18:15;;;;;;;4.63;1.10;;;19.70;66.20;;;;;;5073323;28;20997;-76
2022/05/25 17:20:41;;;;;;;1.70;0.90;;;19.70;66.70;;;;;;5073533;28;20539;-77
2022/05/25 17:23:12;;;;;;;2.80;1.73;;;19.60;67.30;;;;;;5073090;28;20718;-77
2022/05/25 17:25:40;;;;;;;4.27;1.40;;;19.80;65.40;;;;;;5072568;28;20740;-78
2022/05/25 17:28:06;;;;;;;2.17;1.10;;;19.70;65.60;;;;;;5072422;28;20448;-76
2022/05/25 17:30:32;;;;;;;2.07;1.47;;;19.60;66.60;;;;;;5072952;28;20432;-77
2022/05/25 17:32:58;;;;;;;2.87;1.40;;;19.70;66.30;;;;;;5073022;28;20467;-76
2022/05/25 17:35:24;;;;;;;5.23;1.30;;;19.60;66.60;;;;;;5072818;28;20486;-78
2022/05/25 17:43:22;;;;;;;1.87;1.27;;;19.60;68.30;;;;;;5070496;28;20559;-76
2022/05/25 17:45:49;;;;;;;2.13;1.13;;;19.40;69.50;;;;;;5072198;28;20433;-78
2022/05/25 17:48:15;;;;;;;1.20;0.87;;;19.50;69.00;;;;;;5071833;28;20428;-79
2022/05/25 17:50:41;;;;;;;2.10;1.10;;;19.50;69.30;;;;;;5071955;28;20429;-77
2022/05/25 17:53:08;;;;;;;6.40;1.10;;;19.40;70.00;;;;;;5072259;28;20179;-77
2022/05/25 17:55:36;;;;;;;2.07;1.30;;;19.40;70.20;;;;;;5069877;28;20425;-78
2022/05/25 17:58:03;;;;;;;5.50;1.63;;;19.40;70.40;;;;;;5075534;28;20433;-76
2022/05/25 18:00:29;;;;;;;2.90;1.60;;;19.30;69.70;;;;;;5073017;28;20433;-78
2022/05/25 18:02:55;;;;;;;2.97;1.70;;;19.20;71.10;;;;;;5069584;28;20468;-78
2022/05/25 18:05:21;;;;;;;5.73;1.60;;;19.30;70.60;;;;;;5072222;28;20495;-81
2022/05/25 18:07:47;;;;;;;3.00;1.90;;;19.20;70.70;;;;;;5071861;28;20432;-78
2022/05/25 18:10:16;;;;;;;4.60;2.23;;;19.30;71.40;;;;;;5072016;28;20478;-78
2022/05/25 18:12:43;;;;;;;5.10;1.90;;;19.20;73.90;;;;;;5071118;28;20182;-76
2022/05/25 18:15:18;;;;;;;2.00;1.50;;;19.10;72.30;;;;;;5071174;28;20472;-78
2022/05/25 18:17:51;;;;;;;2.20;1.20;;;19.00;72.30;;;;;;5072049;28;20439;-73
2022/05/25 18:20:24;;;;;;;1.97;1.17;;;19.00;72.80;;;;;;5070887;28;20432;-72
2022/05/25 18:22:51;;;;;;;1.73;1.37;;;19.10;72.20;;;;;;5068780;28;20529;-77
2022/05/25 18:25:17;;;;;;;2.80;1.93;;;19.00;73.00;;;;;;5071266;28;20525;-72
2022/05/25 18:27:43;;;;;;;3.57;1.57;;;19.10;73.50;;;;;;5071812;28;20903;-71
2022/05/25 18:30:10;;;;;;;2.20;1.20;;;19.00;74.90;;;;;;5072173;28;20430;-72
2022/05/25 18:32:37;;;;;;;2.43;1.37;;;19.00;74.40;;;;;;5071666;28;20834;-71
2022/05/25 18:35:04;;;;;;;5.53;1.10;;;19.00;74.10;;;;;;5071150;28;20432;-73
2022/05/25 18:37:35;;;;;;;2.20;1.27;;;19.00;74.10;;;;;;5071834;28;20519;-70
2022/05/25 18:40:00;;;;;;;2.93;1.60;;;18.90;74.20;;;;;;5072133;28;20439;-71
2022/05/25 18:42:26;;;;;;;6.13;1.40;;;18.80;77.10;;;;;;5071203;28;20984;-69
2022/05/25 18:44:54;;;;;;;1.37;1.23;;;18.70;76.20;;;;;;5071554;28;20177;-70
2022/05/25 18:47:20;;;;;;;3.40;1.80;;;18.60;77.00;;;;;;5067760;28;20166;-70
2022/05/25 18:49:48;;;;;;;4.40;1.50;;;18.60;76.30;;;;;;5070534;28;20467;-72
2022/05/25 18:52:14;;;;;;;5.23;1.50;;;18.70;76.60;;;;;;5070316;28;20433;-72
2022/05/25 18:54:43;;;;;;;4.60;1.50;;;18.70;77.50;;;;;;5070482;28;20420;-75
2022/05/25 18:57:09;;;;;;;3.83;1.50;;;18.70;75.50;;;;;;5071265;28;21050;-72
2022/05/25 18:59:35;;;;;;;2.70;1.30;;;18.70;74.40;;;;;;5071677;28;20461;-70
2022/05/25 19:02:01;;;;;;;1.97;1.40;;;18.70;75.60;;;;;;5070456;28;20610;-72
2022/05/25 19:04:27;;;;;;;2.80;1.50;;;18.70;76.20;;;;;;5071525;28;20174;-71
2022/05/25 19:06:54;;;;;;;2.00;0.93;;;18.70;76.50;;;;;;5071476;28;20180;-73
2022/05/25 19:09:20;;;;;;;2.37;1.23;;;18.60;76.60;;;;;;5070282;28;20851;-74
2022/05/25 19:11:47;;;;;;;2.10;1.30;;;18.70;77.00;;;;;;5070392;28;20493;-72
2022/05/25 19:14:15;;;;;;;3.33;1.17;;;18.60;77.10;;;;;;5070730;28;20494;-71
2022/05/25 19:16:42;;;;;;;1.57;1.37;;;18.60;76.90;;;;;;5071557;28;20427;-70
2022/05/25 19:19:09;;;;;;;5.30;1.87;;;18.50;76.90;;;;;;5070846;28;20433;-74
2022/05/25 19:21:49;;;;;;;2.00;1.90;;;18.50;78.00;;;;;;5071153;28;20421;-76
2022/05/25 19:24:19;;;;;;;2.80;1.50;;;18.50;77.50;;;;;;5071354;28;20547;-75
2022/05/25 19:26:46;;;;;;;6.30;1.57;;;18.50;77.60;;;;;;5071145;28;20427;-75
2022/05/25 19:29:12;;;;;;;1.80;1.10;;;18.40;77.70;;;;;;5071063;28;20467;-75
2022/05/25 19:31:37;;;;;;;3.20;1.17;;;18.30;78.60;;;;;;5070940;28;20452;-76
2022/05/25 19:34:03;;;;;;;3.43;1.30;;;18.30;78.90;;;;;;5051167;28;20203;-76
2022/05/25 19:36:38;;;;;;;7.63;2.00;;;18.40;78.80;;;;;;5051143;28;20182;-75
2022/05/25 19:39:06;;;;;;;3.40;1.60;;;18.30;79.60;;;;;;5051069;28;20183;-75
2022/05/25 19:41:33;;;;;;;3.27;1.87;;;18.30;79.40;;;;;;5051032;28;20434;-78
2022/05/25 19:44:09;;;;;;;2.33;2.10;;;18.30;79.60;;;;;;5050500;28;20839;-73
2022/05/25 19:46:35;;;;;;;3.80;1.40;;;18.30;80.50;;;;;;5050277;28;20425;-72
2022/05/25 19:49:01;;;;;;;1.87;1.67;;;18.20;80.80;;;;;;5050572;28;20990;-74
2022/05/25 19:51:27;;;;;;;2.83;1.30;;;18.30;81.20;;;;;;5053487;28;20305;-76
2022/05/25 19:53:53;;;;;;;3.57;1.60;;;18.20;81.00;;;;;;5054097;28;20461;-72
2022/05/25 19:56:19;;;;;;;1.87;1.33;;;18.30;81.80;;;;;;5054008;28;20179;-74
2022/05/25 19:58:49;;;;;;;2.37;1.43;;;18.20;84.10;;;;;;5054654;28;20429;-78
2022/05/25 20:01:17;;;;;;;3.10;1.83;;;18.20;84.30;;;;;;5073888;28;20429;-82
2022/05/25 20:03:43;;;;;;;5.17;1.70;;;18.10;84.50;;;;;;5071093;28;20479;-82
2022/05/25 20:06:09;;;;;;;5.13;2.00;;;18.20;83.90;;;;;;5073482;28;20416;-80
2022/05/25 20:08:35;;;;;;;1.87;1.77;;;18.20;84.00;;;;;;5073360;28;20236;-73
2022/05/25 20:11:01;;;;;;;3.53;1.40;;;18.10;84.80;;;;;;5070604;28;20424;-73
2022/05/25 20:13:26;;;;;;;4.70;1.60;;;18.10;84.70;;;;;;5072953;28;20459;-74
2022/05/25 20:15:52;;;;;;;5.33;2.00;;;18.10;85.50;;;;;;5073319;28;20209;-74
2022/05/25 20:18:22;;;;;;;8.30;2.20;;;18.20;86.60;;;;;;5073814;28;20178;-76
2022/05/25 20:20:49;;;;;;;2.47;1.90;;;18.10;86.00;;;;;;5074416;28;20538;-74
2022/05/25 20:23:16;;;;;;;3.90;1.77;;;18.00;87.00;;;;;;5074416;28;20464;-72
2022/05/25 20:25:42;;;;;;;4.80;1.70;;;18.10;87.30;;;;;;5072789;28;20461;-73